sensor_id;sensor_type;location;lat;lon;timestamp;P1;durP1;ratioP1;P2;durP2;ratioP2
4831;SDS011;2430;51.322;7.864;2023-11-21T00:00:31;18.60;;;9.47;;
4831;SDS011;2430;51.322;7.864;2023-11-21T00:02:57;17.83;;;10.00;;
4831;SDS011;2430;51.322;7.864;2023-11-21T00:05:25;17.63;;;10.10;;
4831;SDS011;2430;51.322;7.864;2023-11-21T00:07:51;17.70;;;9.20;;
4831;SDS011;2430;51.322;7.864;2023-11-21T00:10:18;13.83;;;9.17;;
4831;SDS011;2430;51.322;7.864;2023-11-21T00:12:44;16.37;;;9.20;;
4831;SDS011;2430;51.322;7.864;2023-11-21T00:15:13;15.27;;;8.70;;
4831;SDS011;2430;51.322;7.864;2023-11-21T00:17:40;13.07;;;8.70;;
4831;SDS011;2430;51.322;7.864;2023-11-21T00:20:08;16.37;;;8.60;;
4831;SDS011;2430;51.322;7.864;2023-11-21T00:22:39;13.83;;;8.30;;
4831;SDS011;2430;51.322;7.864;2023-11-21T00:25:06;15.23;;;8.90;;
4831;SDS011;2430;51.322;7.864;2023-11-21T00:27:34;22.07;;;8.17;;
4831;SDS011;2430;51.322;7.864;2023-11-21T00:30:00;16.80;;;8.53;;
4831;SDS011;2430;51.322;7.864;2023-11-21T00:32:26;13.70;;;8.27;;
4831;SDS011;2430;51.322;7.864;2023-11-21T00:34:53;15.03;;;8.03;;
4831;SDS011;2430;51.322;7.864;2023-11-21T00:37:19;13.17;;;7.50;;
4831;SDS011;2430;51.322;7.864;2023-11-21T00:39:47;12.23;;;8.90;;
4831;SDS011;2430;51.322;7.864;2023-11-21T00:42:13;21.60;;;7.70;;
4831;SDS011;2430;51.322;7.864;2023-11-21T00:44:40;10.63;;;7.57;;
4831;SDS011;2430;51.322;7.864;2023-11-21T00:47:06;13.40;;;7.27;;
4831;SDS011;2430;51.322;7.864;2023-11-21T00:49:33;19.17;;;7.93;;
4831;SDS011;2430;51.322;7.864;2023-11-21T00:51:59;11.63;;;7.57;;
4831;SDS011;2430;51.322;7.864;2023-11-21T00:54:26;9.27;;;7.20;;
4831;SDS011;2430;51.322;7.864;2023-11-21T00:56:54;13.00;;;7.90;;
4831;SDS011;2430;51.322;7.864;2023-11-21T00:59:21;11.47;;;8.77;;
4831;SDS011;2430;51.322;7.864;2023-11-21T01:01:48;12.17;;;8.53;;
4831;SDS011;2430;51.322;7.864;2023-11-21T01:04:15;15.53;;;9.37;;
4831;SDS011;2430;51.322;7.864;2023-11-21T01:06:41;14.03;;;8.80;;
4831;SDS011;2430;51.322;7.864;2023-11-21T01:09:07;21.63;;;9.23;;
4831;SDS011;2430;51.322;7.864;2023-11-21T01:11:34;15.83;;;9.17;;
4831;SDS011;2430;51.322;7.864;2023-11-21T01:14:03;14.33;;;8.30;;
4831;SDS011;2430;51.322;7.864;2023-11-21T01:16:29;15.67;;;8.53;;
4831;SDS011;2430;51.322;7.864;2023-11-21T01:18:57;22.80;;;8.00;;
4831;SDS011;2430;51.322;7.864;2023-11-21T01:21:24;14.20;;;8.63;;
4831;SDS011;2430;51.322;7.864;2023-11-21T01:23:50;13.80;;;8.13;;
4831;SDS011;2430;51.322;7.864;2023-11-21T01:26:16;19.70;;;8.83;;
4831;SDS011;2430;51.322;7.864;2023-11-21T01:28:43;14.77;;;8.30;;
4831;SDS011;2430;51.322;7.864;2023-11-21T01:31:10;12.50;;;7.90;;
4831;SDS011;2430;51.322;7.864;2023-11-21T01:33:37;19.73;;;9.00;;
4831;SDS011;2430;51.322;7.864;2023-11-21T01:36:04;10.50;;;7.87;;
4831;SDS011;2430;51.322;7.864;2023-11-21T01:38:31;12.20;;;7.07;;
4831;SDS011;2430;51.322;7.864;2023-11-21T01:40:58;20.50;;;8.20;;
4831;SDS011;2430;51.322;7.864;2023-11-21T01:43:25;16.33;;;8.20;;
4831;SDS011;2430;51.322;7.864;2023-11-21T01:45:52;12.03;;;7.77;;
4831;SDS011;2430;51.322;7.864;2023-11-21T01:48:23;26.63;;;8.50;;
4831;SDS011;2430;51.322;7.864;2023-11-21T01:50:49;13.60;;;8.33;;
4831;SDS011;2430;51.322;7.864;2023-11-21T01:53:16;15.17;;;8.90;;
4831;SDS011;2430;51.322;7.864;2023-11-21T01:55:43;13.17;;;8.70;;
4831;SDS011;2430;51.322;7.864;2023-11-21T01:58:11;17.57;;;9.30;;
4831;SDS011;2430;51.322;7.864;2023-11-21T02:00:39;28.80;;;9.27;;
4831;SDS011;2430;51.322;7.864;2023-11-21T02:03:05;18.03;;;8.53;;
4831;SDS011;2430;51.322;7.864;2023-11-21T02:05:34;11.13;;;7.50;;
4831;SDS011;2430;51.322;7.864;2023-11-21T02:08:01;19.20;;;8.57;;
4831;SDS011;2430;51.322;7.864;2023-11-21T02:10:28;17.00;;;8.00;;
4831;SDS011;2430;51.322;7.864;2023-11-21T02:12:56;11.40;;;9.10;;
4831;SDS011;2430;51.322;7.864;2023-11-21T02:15:23;13.00;;;8.20;;
4831;SDS011;2430;51.322;7.864;2023-11-21T02:17:53;18.97;;;9.27;;
4831;SDS011;2430;51.322;7.864;2023-11-21T02:20:20;12.63;;;8.57;;
4831;SDS011;2430;51.322;7.864;2023-11-21T02:22:51;14.57;;;7.80;;
4831;SDS011;2430;51.322;7.864;2023-11-21T02:25:21;13.33;;;7.90;;
4831;SDS011;2430;51.322;7.864;2023-11-21T02:27:47;13.90;;;8.70;;
4831;SDS011;2430;51.322;7.864;2023-11-21T02:30:14;17.10;;;8.27;;
4831;SDS011;2430;51.322;7.864;2023-11-21T02:32:39;11.57;;;7.70;;
4831;SDS011;2430;51.322;7.864;2023-11-21T02:35:08;19.70;;;8.50;;
4831;SDS011;2430;51.322;7.864;2023-11-21T02:37:34;14.20;;;7.00;;
4831;SDS011;2430;51.322;7.864;2023-11-21T02:40:02;13.63;;;7.47;;
4831;SDS011;2430;51.322;7.864;2023-11-21T02:42:31;10.07;;;6.50;;
4831;SDS011;2430;51.322;7.864;2023-11-21T02:44:58;19.20;;;7.40;;
4831;SDS011;2430;51.322;7.864;2023-11-21T02:47:24;21.47;;;7.23;;
4831;SDS011;2430;51.322;7.864;2023-11-21T02:49:50;16.50;;;8.67;;
4831;SDS011;2430;51.322;7.864;2023-11-21T02:52:17;13.30;;;8.43;;
4831;SDS011;2430;51.322;7.864;2023-11-21T02:54:44;15.43;;;9.03;;
4831;SDS011;2430;51.322;7.864;2023-11-21T02:57:12;25.03;;;8.30;;
4831;SDS011;2430;51.322;7.864;2023-11-21T02:59:38;13.17;;;8.27;;
4831;SDS011;2430;51.322;7.864;2023-11-21T03:02:05;18.83;;;10.20;;
4831;SDS011;2430;51.322;7.864;2023-11-21T03:04:33;14.10;;;8.57;;
4831;SDS011;2430;51.322;7.864;2023-11-21T03:07:00;24.67;;;9.23;;
4831;SDS011;2430;51.322;7.864;2023-11-21T03:09:27;16.50;;;9.10;;
4831;SDS011;2430;51.322;7.864;2023-11-21T03:11:53;17.07;;;8.87;;
4831;SDS011;2430;51.322;7.864;2023-11-21T03:14:21;14.90;;;8.80;;
4831;SDS011;2430;51.322;7.864;2023-11-21T03:16:48;11.87;;;8.50;;
4831;SDS011;2430;51.322;7.864;2023-11-21T03:19:15;15.97;;;9.30;;
4831;SDS011;2430;51.322;7.864;2023-11-21T03:21:42;12.17;;;8.30;;
4831;SDS011;2430;51.322;7.864;2023-11-21T03:24:08;16.57;;;9.50;;
4831;SDS011;2430;51.322;7.864;2023-11-21T03:26:35;16.83;;;8.03;;
4831;SDS011;2430;51.322;7.864;2023-11-21T03:29:03;14.67;;;8.27;;
4831;SDS011;2430;51.322;7.864;2023-11-21T03:31:31;20.63;;;8.67;;
4831;SDS011;2430;51.322;7.864;2023-11-21T03:33:58;22.43;;;9.73;;
4831;SDS011;2430;51.322;7.864;2023-11-21T03:36:25;16.77;;;9.63;;
4831;SDS011;2430;51.322;7.864;2023-11-21T03:38:51;18.70;;;9.17;;
4831;SDS011;2430;51.322;7.864;2023-11-21T03:41:20;13.43;;;8.77;;
4831;SDS011;2430;51.322;7.864;2023-11-21T03:43:47;13.37;;;8.83;;
4831;SDS011;2430;51.322;7.864;2023-11-21T03:46:14;20.80;;;9.80;;
4831;SDS011;2430;51.322;7.864;2023-11-21T03:48:44;10.43;;;8.17;;
4831;SDS011;2430;51.322;7.864;2023-11-21T03:51:11;14.00;;;9.03;;
4831;SDS011;2430;51.322;7.864;2023-11-21T03:53:37;19.43;;;9.90;;
4831;SDS011;2430;51.322;7.864;2023-11-21T03:56:04;17.70;;;10.53;;
4831;SDS011;2430;51.322;7.864;2023-11-21T03:58:30;24.80;;;10.50;;
4831;SDS011;2430;51.322;7.864;2023-11-21T04:00:57;16.83;;;9.90;;
4831;SDS011;2430;51.322;7.864;2023-11-21T04:03:24;14.00;;;10.27;;
4831;SDS011;2430;51.322;7.864;2023-11-21T04:05:52;16.43;;;10.37;;
4831;SDS011;2430;51.322;7.864;2023-11-21T04:08:19;14.30;;;9.00;;
4831;SDS011;2430;51.322;7.864;2023-11-21T04:10:45;15.83;;;9.83;;
4831;SDS011;2430;51.322;7.864;2023-11-21T04:13:12;14.33;;;9.77;;
4831;SDS011;2430;51.322;7.864;2023-11-21T04:15:38;27.80;;;9.70;;
4831;SDS011;2430;51.322;7.864;2023-11-21T04:18:05;10.17;;;8.20;;
4831;SDS011;2430;51.322;7.864;2023-11-21T04:20:31;15.20;;;8.47;;
4831;SDS011;2430;51.322;7.864;2023-11-21T04:22:59;19.33;;;9.73;;
4831;SDS011;2430;51.322;7.864;2023-11-21T04:25:25;13.13;;;9.80;;
4831;SDS011;2430;51.322;7.864;2023-11-21T04:27:53;14.43;;;9.57;;
4831;SDS011;2430;51.322;7.864;2023-11-21T04:30:19;19.20;;;9.00;;
4831;SDS011;2430;51.322;7.864;2023-11-21T04:32:45;18.20;;;9.10;;
4831;SDS011;2430;51.322;7.864;2023-11-21T04:35:12;17.70;;;10.10;;
4831;SDS011;2430;51.322;7.864;2023-11-21T04:37:38;16.27;;;9.87;;
4831;SDS011;2430;51.322;7.864;2023-11-21T04:40:07;14.63;;;9.33;;
4831;SDS011;2430;51.322;7.864;2023-11-21T04:42:34;18.70;;;9.03;;
4831;SDS011;2430;51.322;7.864;2023-11-21T04:45:00;15.13;;;9.00;;
4831;SDS011;2430;51.322;7.864;2023-11-21T04:47:30;15.00;;;10.50;;
4831;SDS011;2430;51.322;7.864;2023-11-21T04:49:56;15.40;;;9.20;;
4831;SDS011;2430;51.322;7.864;2023-11-21T04:52:23;12.57;;;10.30;;
4831;SDS011;2430;51.322;7.864;2023-11-21T04:54:49;14.13;;;9.30;;
4831;SDS011;2430;51.322;7.864;2023-11-21T04:57:18;19.10;;;10.07;;
4831;SDS011;2430;51.322;7.864;2023-11-21T04:59:46;15.80;;;10.23;;
4831;SDS011;2430;51.322;7.864;2023-11-21T05:02:12;16.00;;;9.37;;
4831;SDS011;2430;51.322;7.864;2023-11-21T05:04:39;16.57;;;10.10;;
4831;SDS011;2430;51.322;7.864;2023-11-21T05:07:08;13.10;;;9.47;;
4831;SDS011;2430;51.322;7.864;2023-11-21T05:09:35;17.30;;;10.87;;
4831;SDS011;2430;51.322;7.864;2023-11-21T05:12:03;19.57;;;10.63;;
4831;SDS011;2430;51.322;7.864;2023-11-21T05:14:31;21.67;;;11.20;;
4831;SDS011;2430;51.322;7.864;2023-11-21T05:16:58;17.73;;;11.20;;
4831;SDS011;2430;51.322;7.864;2023-11-21T05:19:26;17.20;;;10.23;;
4831;SDS011;2430;51.322;7.864;2023-11-21T05:21:54;22.97;;;12.63;;
4831;SDS011;2430;51.322;7.864;2023-11-21T05:24:21;20.30;;;11.37;;
4831;SDS011;2430;51.322;7.864;2023-11-21T05:26:47;18.60;;;11.90;;
4831;SDS011;2430;51.322;7.864;2023-11-21T05:29:14;24.63;;;11.03;;
4831;SDS011;2430;51.322;7.864;2023-11-21T05:31:42;15.70;;;11.23;;
4831;SDS011;2430;51.322;7.864;2023-11-21T05:34:09;21.17;;;11.03;;
4831;SDS011;2430;51.322;7.864;2023-11-21T05:36:36;18.90;;;10.00;;
4831;SDS011;2430;51.322;7.864;2023-11-21T05:39:02;18.80;;;11.47;;
4831;SDS011;2430;51.322;7.864;2023-11-21T05:41:29;20.63;;;12.90;;
4831;SDS011;2430;51.322;7.864;2023-11-21T05:43:56;20.33;;;11.13;;
4831;SDS011;2430;51.322;7.864;2023-11-21T05:46:22;17.80;;;10.67;;
4831;SDS011;2430;51.322;7.864;2023-11-21T05:48:50;19.43;;;10.80;;
4831;SDS011;2430;51.322;7.864;2023-11-21T05:51:17;15.93;;;10.00;;
4831;SDS011;2430;51.322;7.864;2023-11-21T05:53:44;20.67;;;10.67;;
4831;SDS011;2430;51.322;7.864;2023-11-21T05:56:10;19.03;;;12.20;;
4831;SDS011;2430;51.322;7.864;2023-11-21T05:58:38;23.47;;;13.50;;
4831;SDS011;2430;51.322;7.864;2023-11-21T06:01:05;19.80;;;12.37;;
4831;SDS011;2430;51.322;7.864;2023-11-21T06:03:34;31.47;;;13.03;;
4831;SDS011;2430;51.322;7.864;2023-11-21T06:06:03;21.90;;;12.27;;
4831;SDS011;2430;51.322;7.864;2023-11-21T06:08:30;21.63;;;12.83;;
4831;SDS011;2430;51.322;7.864;2023-11-21T06:10:57;18.50;;;11.73;;
4831;SDS011;2430;51.322;7.864;2023-11-21T06:13:23;19.80;;;12.10;;
4831;SDS011;2430;51.322;7.864;2023-11-21T06:15:50;18.73;;;12.17;;
4831;SDS011;2430;51.322;7.864;2023-11-21T06:18:17;18.47;;;12.30;;
4831;SDS011;2430;51.322;7.864;2023-11-21T06:20:44;22.73;;;12.97;;
4831;SDS011;2430;51.322;7.864;2023-11-21T06:23:12;26.60;;;12.27;;
4831;SDS011;2430;51.322;7.864;2023-11-21T06:25:39;19.10;;;13.57;;
4831;SDS011;2430;51.322;7.864;2023-11-21T06:28:06;18.23;;;12.17;;
4831;SDS011;2430;51.322;7.864;2023-11-21T06:30:33;18.53;;;12.23;;
4831;SDS011;2430;51.322;7.864;2023-11-21T06:32:59;22.17;;;12.23;;
4831;SDS011;2430;51.322;7.864;2023-11-21T06:35:26;21.30;;;11.23;;
4831;SDS011;2430;51.322;7.864;2023-11-21T06:37:55;18.13;;;11.03;;
4831;SDS011;2430;51.322;7.864;2023-11-21T06:40:23;19.53;;;11.70;;
4831;SDS011;2430;51.322;7.864;2023-11-21T06:42:50;21.60;;;11.70;;
4831;SDS011;2430;51.322;7.864;2023-11-21T06:45:16;22.37;;;11.67;;
4831;SDS011;2430;51.322;7.864;2023-11-21T06:47:43;19.90;;;11.80;;
4831;SDS011;2430;51.322;7.864;2023-11-21T06:50:09;22.17;;;13.00;;
4831;SDS011;2430;51.322;7.864;2023-11-21T06:52:36;24.83;;;14.07;;
4831;SDS011;2430;51.322;7.864;2023-11-21T06:55:02;28.17;;;14.03;;
4831;SDS011;2430;51.322;7.864;2023-11-21T06:57:31;24.37;;;13.93;;
4831;SDS011;2430;51.322;7.864;2023-11-21T06:59:57;23.93;;;14.70;;
4831;SDS011;2430;51.322;7.864;2023-11-21T07:02:23;28.13;;;12.30;;
4831;SDS011;2430;51.322;7.864;2023-11-21T07:04:50;27.67;;;13.87;;
4831;SDS011;2430;51.322;7.864;2023-11-21T07:07:16;19.97;;;12.87;;
4831;SDS011;2430;51.322;7.864;2023-11-21T07:09:42;23.87;;;13.90;;
4831;SDS011;2430;51.322;7.864;2023-11-21T07:12:08;20.53;;;12.37;;
4831;SDS011;2430;51.322;7.864;2023-11-21T07:14:37;28.00;;;13.53;;
4831;SDS011;2430;51.322;7.864;2023-11-21T07:17:06;33.07;;;15.93;;
4831;SDS011;2430;51.322;7.864;2023-11-21T07:19:32;21.80;;;12.87;;
4831;SDS011;2430;51.322;7.864;2023-11-21T07:21:59;22.70;;;13.83;;
4831;SDS011;2430;51.322;7.864;2023-11-21T07:24:25;19.83;;;12.67;;
4831;SDS011;2430;51.322;7.864;2023-11-21T07:26:51;19.77;;;12.13;;
4831;SDS011;2430;51.322;7.864;2023-11-21T07:29:22;21.60;;;12.60;;
4831;SDS011;2430;51.322;7.864;2023-11-21T07:31:51;31.87;;;17.63;;
4831;SDS011;2430;51.322;7.864;2023-11-21T07:34:18;30.47;;;18.03;;
4831;SDS011;2430;51.322;7.864;2023-11-21T07:36:44;28.17;;;16.47;;
4831;SDS011;2430;51.322;7.864;2023-11-21T07:39:10;28.10;;;17.47;;
4831;SDS011;2430;51.322;7.864;2023-11-21T07:41:37;35.07;;;19.17;;
4831;SDS011;2430;51.322;7.864;2023-11-21T07:44:09;28.03;;;16.13;;
4831;SDS011;2430;51.322;7.864;2023-11-21T07:46:36;30.37;;;17.00;;
4831;SDS011;2430;51.322;7.864;2023-11-21T07:49:04;27.23;;;15.70;;
4831;SDS011;2430;51.322;7.864;2023-11-21T07:51:30;25.57;;;15.87;;
4831;SDS011;2430;51.322;7.864;2023-11-21T07:53:56;30.57;;;17.00;;
4831;SDS011;2430;51.322;7.864;2023-11-21T07:56:23;31.23;;;17.10;;
4831;SDS011;2430;51.322;7.864;2023-11-21T07:58:49;25.73;;;16.47;;
4831;SDS011;2430;51.322;7.864;2023-11-21T08:01:15;27.90;;;15.50;;
4831;SDS011;2430;51.322;7.864;2023-11-21T08:03:42;31.83;;;16.00;;
4831;SDS011;2430;51.322;7.864;2023-11-21T08:06:10;31.03;;;16.77;;
4831;SDS011;2430;51.322;7.864;2023-11-21T08:08:37;27.00;;;15.67;;
4831;SDS011;2430;51.322;7.864;2023-11-21T08:11:03;25.83;;;15.80;;
4831;SDS011;2430;51.322;7.864;2023-11-21T08:13:30;31.87;;;16.97;;
4831;SDS011;2430;51.322;7.864;2023-11-21T08:15:56;25.83;;;18.20;;
4831;SDS011;2430;51.322;7.864;2023-11-21T08:18:26;36.47;;;17.47;;
4831;SDS011;2430;51.322;7.864;2023-11-21T08:20:54;27.77;;;17.30;;
4831;SDS011;2430;51.322;7.864;2023-11-21T08:23:21;28.57;;;18.37;;
4831;SDS011;2430;51.322;7.864;2023-11-21T08:25:50;29.23;;;16.47;;
4831;SDS011;2430;51.322;7.864;2023-11-21T08:28:16;29.90;;;17.23;;
4831;SDS011;2430;51.322;7.864;2023-11-21T08:30:43;35.23;;;16.87;;
4831;SDS011;2430;51.322;7.864;2023-11-21T08:33:09;24.73;;;15.87;;
4831;SDS011;2430;51.322;7.864;2023-11-21T08:35:36;33.63;;;16.30;;
4831;SDS011;2430;51.322;7.864;2023-11-21T08:38:02;28.90;;;16.50;;
4831;SDS011;2430;51.322;7.864;2023-11-21T08:40:30;30.20;;;17.10;;
4831;SDS011;2430;51.322;7.864;2023-11-21T08:42:56;28.90;;;15.10;;
4831;SDS011;2430;51.322;7.864;2023-11-21T08:45:23;33.03;;;16.97;;
4831;SDS011;2430;51.322;7.864;2023-11-21T08:47:50;29.53;;;16.00;;
4831;SDS011;2430;51.322;7.864;2023-11-21T08:50:16;25.47;;;16.30;;
4831;SDS011;2430;51.322;7.864;2023-11-21T08:52:43;24.83;;;15.17;;
4831;SDS011;2430;51.322;7.864;2023-11-21T08:55:10;26.53;;;15.50;;
4831;SDS011;2430;51.322;7.864;2023-11-21T08:57:40;26.23;;;14.10;;
4831;SDS011;2430;51.322;7.864;2023-11-21T09:00:06;29.07;;;15.93;;
4831;SDS011;2430;51.322;7.864;2023-11-21T09:02:36;28.13;;;15.60;;
4831;SDS011;2430;51.322;7.864;2023-11-21T09:05:02;25.00;;;15.10;;
4831;SDS011;2430;51.322;7.864;2023-11-21T09:07:29;27.80;;;13.70;;
4831;SDS011;2430;51.322;7.864;2023-11-21T09:09:55;28.43;;;15.13;;
4831;SDS011;2430;51.322;7.864;2023-11-21T09:12:21;24.33;;;14.40;;
4831;SDS011;2430;51.322;7.864;2023-11-21T09:14:51;23.27;;;13.20;;
4831;SDS011;2430;51.322;7.864;2023-11-21T09:17:17;15.63;;;11.33;;
4831;SDS011;2430;51.322;7.864;2023-11-21T09:19:44;23.07;;;11.63;;
4831;SDS011;2430;51.322;7.864;2023-11-21T09:22:14;19.57;;;11.53;;
4831;SDS011;2430;51.322;7.864;2023-11-21T09:24:41;21.63;;;10.30;;
4831;SDS011;2430;51.322;7.864;2023-11-21T09:27:07;23.17;;;11.00;;
4831;SDS011;2430;51.322;7.864;2023-11-21T09:29:34;20.53;;;10.40;;
4831;SDS011;2430;51.322;7.864;2023-11-21T09:32:02;24.73;;;13.30;;
4831;SDS011;2430;51.322;7.864;2023-11-21T09:34:28;21.47;;;10.93;;
4831;SDS011;2430;51.322;7.864;2023-11-21T09:36:54;18.50;;;10.73;;
4831;SDS011;2430;51.322;7.864;2023-11-21T09:39:21;23.40;;;10.60;;
4831;SDS011;2430;51.322;7.864;2023-11-21T09:41:49;17.60;;;10.50;;
4831;SDS011;2430;51.322;7.864;2023-11-21T09:44:17;21.33;;;11.03;;
4831;SDS011;2430;51.322;7.864;2023-11-21T09:46:43;19.90;;;12.00;;
4831;SDS011;2430;51.322;7.864;2023-11-21T09:49:14;18.20;;;10.63;;
4831;SDS011;2430;51.322;7.864;2023-11-21T09:51:42;16.93;;;9.70;;
4831;SDS011;2430;51.322;7.864;2023-11-21T09:54:08;20.70;;;11.80;;
4831;SDS011;2430;51.322;7.864;2023-11-21T09:56:36;26.40;;;16.33;;
4831;SDS011;2430;51.322;7.864;2023-11-21T09:59:03;15.77;;;9.97;;
4831;SDS011;2430;51.322;7.864;2023-11-21T10:01:32;16.60;;;8.80;;
4831;SDS011;2430;51.322;7.864;2023-11-21T10:03:59;15.97;;;9.70;;
4831;SDS011;2430;51.322;7.864;2023-11-21T10:06:27;15.73;;;10.20;;
4831;SDS011;2430;51.322;7.864;2023-11-21T10:08:54;21.43;;;8.87;;
4831;SDS011;2430;51.322;7.864;2023-11-21T10:11:22;19.30;;;8.50;;
4831;SDS011;2430;51.322;7.864;2023-11-21T10:13:50;17.17;;;9.10;;
4831;SDS011;2430;51.322;7.864;2023-11-21T10:16:19;15.83;;;8.87;;
4831;SDS011;2430;51.322;7.864;2023-11-21T10:18:47;15.60;;;8.23;;
4831;SDS011;2430;51.322;7.864;2023-11-21T10:21:14;16.60;;;8.63;;
4831;SDS011;2430;51.322;7.864;2023-11-21T10:23:42;16.50;;;8.80;;
4831;SDS011;2430;51.322;7.864;2023-11-21T10:26:08;13.07;;;8.10;;
4831;SDS011;2430;51.322;7.864;2023-11-21T10:28:41;20.03;;;9.80;;
4831;SDS011;2430;51.322;7.864;2023-11-21T10:31:07;18.60;;;8.33;;
4831;SDS011;2430;51.322;7.864;2023-11-21T10:33:34;23.60;;;11.40;;
4831;SDS011;2430;51.322;7.864;2023-11-21T10:36:00;20.20;;;9.27;;
4831;SDS011;2430;51.322;7.864;2023-11-21T10:38:27;15.40;;;8.83;;
4831;SDS011;2430;51.322;7.864;2023-11-21T10:40:56;17.90;;;8.63;;
4831;SDS011;2430;51.322;7.864;2023-11-21T10:43:24;17.70;;;9.07;;
4831;SDS011;2430;51.322;7.864;2023-11-21T10:45:51;21.30;;;9.40;;
4831;SDS011;2430;51.322;7.864;2023-11-21T10:48:17;25.80;;;13.50;;
4831;SDS011;2430;51.322;7.864;2023-11-21T10:50:43;25.47;;;12.23;;
4831;SDS011;2430;51.322;7.864;2023-11-21T10:53:10;23.73;;;12.07;;
4831;SDS011;2430;51.322;7.864;2023-11-21T10:55:37;23.43;;;11.23;;
4831;SDS011;2430;51.322;7.864;2023-11-21T10:58:06;24.93;;;11.87;;
4831;SDS011;2430;51.322;7.864;2023-11-21T11:00:35;23.80;;;10.83;;
4831;SDS011;2430;51.322;7.864;2023-11-21T11:03:02;19.43;;;10.30;;
4831;SDS011;2430;51.322;7.864;2023-11-21T11:05:29;20.77;;;11.80;;
4831;SDS011;2430;51.322;7.864;2023-11-21T11:07:58;47.17;;;20.37;;
4831;SDS011;2430;51.322;7.864;2023-11-21T11:10:26;38.87;;;18.20;;
4831;SDS011;2430;51.322;7.864;2023-11-21T11:12:53;29.97;;;14.03;;
4831;SDS011;2430;51.322;7.864;2023-11-21T11:15:21;27.23;;;10.43;;
4831;SDS011;2430;51.322;7.864;2023-11-21T11:17:48;27.33;;;11.70;;
4831;SDS011;2430;51.322;7.864;2023-11-21T11:20:15;22.17;;;10.50;;
4831;SDS011;2430;51.322;7.864;2023-11-21T11:22:44;20.60;;;10.90;;
4831;SDS011;2430;51.322;7.864;2023-11-21T11:25:21;25.80;;;11.67;;
4831;SDS011;2430;51.322;7.864;2023-11-21T11:27:52;30.20;;;12.63;;
4831;SDS011;2430;51.322;7.864;2023-11-21T11:30:25;24.70;;;12.23;;
4831;SDS011;2430;51.322;7.864;2023-11-21T11:32:55;20.33;;;8.70;;
4831;SDS011;2430;51.322;7.864;2023-11-21T11:35:26;18.60;;;9.70;;
4831;SDS011;2430;51.322;7.864;2023-11-21T11:37:56;30.70;;;15.80;;
4831;SDS011;2430;51.322;7.864;2023-11-21T11:40:25;31.13;;;15.00;;
4831;SDS011;2430;51.322;7.864;2023-11-21T11:42:55;17.70;;;9.63;;
4831;SDS011;2430;51.322;7.864;2023-11-21T11:45:22;9.93;;;6.10;;
4831;SDS011;2430;51.322;7.864;2023-11-21T11:47:49;8.47;;;5.83;;
4831;SDS011;2430;51.322;7.864;2023-11-21T11:50:22;19.13;;;10.60;;
4831;SDS011;2430;51.322;7.864;2023-11-21T11:52:50;17.60;;;9.97;;
4831;SDS011;2430;51.322;7.864;2023-11-21T11:55:18;17.47;;;9.10;;
4831;SDS011;2430;51.322;7.864;2023-11-21T11:57:45;15.83;;;10.23;;
4831;SDS011;2430;51.322;7.864;2023-11-21T12:00:14;15.30;;;9.60;;
4831;SDS011;2430;51.322;7.864;2023-11-21T12:02:44;11.17;;;7.90;;
4831;SDS011;2430;51.322;7.864;2023-11-21T12:05:12;14.40;;;10.00;;
4831;SDS011;2430;51.322;7.864;2023-11-21T12:07:41;19.43;;;11.30;;
4831;SDS011;2430;51.322;7.864;2023-11-21T12:10:07;15.20;;;9.93;;
4831;SDS011;2430;51.322;7.864;2023-11-21T12:12:36;16.10;;;10.90;;
4831;SDS011;2430;51.322;7.864;2023-11-21T12:15:04;25.57;;;12.40;;
4831;SDS011;2430;51.322;7.864;2023-11-21T12:17:30;17.20;;;11.00;;
4831;SDS011;2430;51.322;7.864;2023-11-21T12:20:01;19.80;;;12.10;;
4831;SDS011;2430;51.322;7.864;2023-11-21T12:22:29;16.50;;;10.90;;
4831;SDS011;2430;51.322;7.864;2023-11-21T12:24:56;19.63;;;12.70;;
4831;SDS011;2430;51.322;7.864;2023-11-21T12:27:22;23.20;;;12.23;;
4831;SDS011;2430;51.322;7.864;2023-11-21T12:29:48;19.20;;;12.10;;
4831;SDS011;2430;51.322;7.864;2023-11-21T12:32:15;18.30;;;12.23;;
4831;SDS011;2430;51.322;7.864;2023-11-21T12:34:43;25.30;;;12.47;;
4831;SDS011;2430;51.322;7.864;2023-11-21T12:37:09;27.00;;;13.20;;
4831;SDS011;2430;51.322;7.864;2023-11-21T12:39:37;19.23;;;12.47;;
4831;SDS011;2430;51.322;7.864;2023-11-21T12:42:03;19.90;;;11.40;;
4831;SDS011;2430;51.322;7.864;2023-11-21T12:44:31;18.20;;;12.00;;
4831;SDS011;2430;51.322;7.864;2023-11-21T12:46:58;17.10;;;11.17;;
4831;SDS011;2430;51.322;7.864;2023-11-21T12:49:26;19.70;;;12.83;;
4831;SDS011;2430;51.322;7.864;2023-11-21T12:51:53;20.17;;;14.20;;
4831;SDS011;2430;51.322;7.864;2023-11-21T12:54:19;15.43;;;10.20;;
4831;SDS011;2430;51.322;7.864;2023-11-21T12:56:49;17.70;;;11.03;;
4831;SDS011;2430;51.322;7.864;2023-11-21T12:59:15;14.13;;;9.83;;
4831;SDS011;2430;51.322;7.864;2023-11-21T13:01:43;14.43;;;9.80;;
4831;SDS011;2430;51.322;7.864;2023-11-21T13:04:10;27.87;;;13.53;;
4831;SDS011;2430;51.322;7.864;2023-11-21T13:06:36;17.97;;;10.17;;
4831;SDS011;2430;51.322;7.864;2023-11-21T13:09:07;11.90;;;7.90;;
4831;SDS011;2430;51.322;7.864;2023-11-21T13:11:35;11.73;;;8.70;;
4831;SDS011;2430;51.322;7.864;2023-11-21T13:14:03;10.13;;;7.10;;
4831;SDS011;2430;51.322;7.864;2023-11-21T13:16:29;14.77;;;7.47;;
4831;SDS011;2430;51.322;7.864;2023-11-21T13:18:56;13.33;;;9.07;;
4831;SDS011;2430;51.322;7.864;2023-11-21T13:21:23;18.07;;;9.80;;
4831;SDS011;2430;51.322;7.864;2023-11-21T13:23:49;13.33;;;8.40;;
4831;SDS011;2430;51.322;7.864;2023-11-21T13:26:17;14.83;;;10.10;;
4831;SDS011;2430;51.322;7.864;2023-11-21T13:28:45;22.60;;;10.80;;
4831;SDS011;2430;51.322;7.864;2023-11-21T13:31:13;21.80;;;12.70;;
4831;SDS011;2430;51.322;7.864;2023-11-21T13:33:50;27.30;;;12.20;;
4831;SDS011;2430;51.322;7.864;2023-11-21T13:36:21;75.23;;;13.63;;
4831;SDS011;2430;51.322;7.864;2023-11-21T13:38:48;29.80;;;12.13;;
4831;SDS011;2430;51.322;7.864;2023-11-21T13:41:14;49.30;;;11.87;;
4831;SDS011;2430;51.322;7.864;2023-11-21T13:43:40;25.30;;;12.10;;
4831;SDS011;2430;51.322;7.864;2023-11-21T13:46:09;51.87;;;14.77;;
4831;SDS011;2430;51.322;7.864;2023-11-21T13:48:41;27.60;;;13.43;;
4831;SDS011;2430;51.322;7.864;2023-11-21T13:51:12;31.40;;;14.00;;
4831;SDS011;2430;51.322;7.864;2023-11-21T13:53:42;51.30;;;13.40;;
4831;SDS011;2430;51.322;7.864;2023-11-21T13:56:09;56.60;;;14.10;;
4831;SDS011;2430;51.322;7.864;2023-11-21T13:58:36;30.33;;;14.33;;
4831;SDS011;2430;51.322;7.864;2023-11-21T14:01:09;36.17;;;16.60;;
4831;SDS011;2430;51.322;7.864;2023-11-21T14:03:57;34.47;;;11.90;;
4831;SDS011;2430;51.322;7.864;2023-11-21T14:06:33;38.73;;;13.97;;
4831;SDS011;2430;51.322;7.864;2023-11-21T14:09:05;25.97;;;12.70;;
4831;SDS011;2430;51.322;7.864;2023-11-21T14:11:32;19.83;;;11.80;;
4831;SDS011;2430;51.322;7.864;2023-11-21T14:13:59;26.93;;;11.13;;
4831;SDS011;2430;51.322;7.864;2023-11-21T14:16:25;20.13;;;10.67;;
4831;SDS011;2430;51.322;7.864;2023-11-21T14:18:52;19.97;;;10.50;;
4831;SDS011;2430;51.322;7.864;2023-11-21T14:21:27;17.00;;;10.20;;
4831;SDS011;2430;51.322;7.864;2023-11-21T14:23:53;20.87;;;11.07;;
4831;SDS011;2430;51.322;7.864;2023-11-21T14:26:20;16.10;;;9.80;;
4831;SDS011;2430;51.322;7.864;2023-11-21T14:28:48;9.60;;;6.33;;
4831;SDS011;2430;51.322;7.864;2023-11-21T14:31:16;8.47;;;5.83;;
4831;SDS011;2430;51.322;7.864;2023-11-21T14:33:43;7.67;;;5.83;;
4831;SDS011;2430;51.322;7.864;2023-11-21T14:36:10;8.30;;;5.23;;
4831;SDS011;2430;51.322;7.864;2023-11-21T14:38:37;8.70;;;5.53;;
4831;SDS011;2430;51.322;7.864;2023-11-21T14:41:04;9.27;;;7.00;;
4831;SDS011;2430;51.322;7.864;2023-11-21T14:43:33;8.50;;;5.67;;
4831;SDS011;2430;51.322;7.864;2023-11-21T14:46:00;6.33;;;4.70;;
4831;SDS011;2430;51.322;7.864;2023-11-21T14:48:28;6.20;;;4.97;;
4831;SDS011;2430;51.322;7.864;2023-11-21T14:51:07;6.47;;;4.93;;
4831;SDS011;2430;51.322;7.864;2023-11-21T14:53:54;19.83;;;5.77;;
4831;SDS011;2430;51.322;7.864;2023-11-21T14:56:19;5.53;;;4.30;;